sensor_id;sensor_type;location;lat;lon;timestamp;pressure;altitude;pressure_sealevel;temperature;humidity
44920;BME280;30655;53.094;6.072;2023-02-16T00:02:09;102368.59;;;5.78;90.24
44920;BME280;30655;53.094;6.072;2023-02-16T00:04:36;102356.34;;;5.69;90.35
44920;BME280;30655;53.094;6.072;2023-02-16T00:07:06;102371.47;;;5.76;90.63
44920;BME280;30655;53.094;6.072;2023-02-16T00:09:35;102359.84;;;5.62;90.06
44920;BME280;30655;53.094;6.072;2023-02-16T00:12:04;102365.44;;;5.74;90.20
44920;BME280;30655;53.094;6.072;2023-02-16T00:14:42;102327.38;;;5.51;90.08
44920;BME280;30655;53.094;6.072;2023-02-16T00:17:16;102343.28;;;5.59;89.97
44920;BME280;30655;53.094;6.072;2023-02-16T00:19:43;102359.00;;;5.69;89.96
44920;BME280;30655;53.094;6.072;2023-02-16T00:22:10;102351.16;;;5.60;90.51
44920;BME280;30655;53.094;6.072;2023-02-16T00:24:39;102359.44;;;5.66;90.42
44920;BME280;30655;53.094;6.072;2023-02-16T00:27:12;102354.25;;;5.64;90.20
44920;BME280;30655;53.094;6.072;2023-02-16T00:29:40;102351.97;;;5.61;90.01
44920;BME280;30655;53.094;6.072;2023-02-16T00:32:12;102349.06;;;5.56;89.61
44920;BME280;30655;53.094;6.072;2023-02-16T00:34:40;102351.56;;;5.57;90.31
44920;BME280;30655;53.094;6.072;2023-02-16T00:37:09;102340.34;;;5.47;90.29
44920;BME280;30655;53.094;6.072;2023-02-16T00:39:39;102349.41;;;5.46;90.16
44920;BME280;30655;53.094;6.072;2023-02-16T00:42:18;102352.72;;;5.48;90.66
44920;BME280;30655;53.094;6.072;2023-02-16T00:44:47;102345.06;;;5.45;90.77
44920;BME280;30655;53.094;6.072;2023-02-16T00:47:17;102348.59;;;5.46;90.90
44920;BME280;30655;53.094;6.072;2023-02-16T00:49:49;102347.31;;;5.42;91.05
44920;BME280;30655;53.094;6.072;2023-02-16T00:52:26;102343.00;;;5.41;90.66
44920;BME280;30655;53.094;6.072;2023-02-16T00:54:57;102344.41;;;5.37;91.40
44920;BME280;30655;53.094;6.072;2023-02-16T00:57:26;102337.78;;;5.33;90.72
44920;BME280;30655;53.094;6.072;2023-02-16T00:59:59;102333.38;;;5.25;90.91
44920;BME280;30655;53.094;6.072;2023-02-16T01:02:28;102327.44;;;5.30;91.13
44920;BME280;30655;53.094;6.072;2023-02-16T01:04:55;102337.34;;;5.29;91.81
44920;BME280;30655;53.094;6.072;2023-02-16T01:07:22;102335.28;;;5.31;91.55
44920;BME280;30655;53.094;6.072;2023-02-16T01:09:48;102334.06;;;5.34;92.22
44920;BME280;30655;53.094;6.072;2023-02-16T01:12:21;102328.69;;;5.34;91.71
44920;BME280;30655;53.094;6.072;2023-02-16T01:14:51;102304.31;;;5.22;91.72
44920;BME280;30655;53.094;6.072;2023-02-16T01:17:19;102321.72;;;5.33;91.59
44920;BME280;30655;53.094;6.072;2023-02-16T01:19:46;102307.59;;;5.24;91.75
44920;BME280;30655;53.094;6.072;2023-02-16T01:22:13;102320.88;;;5.32;91.78
44920;BME280;30655;53.094;6.072;2023-02-16T01:24:40;102324.16;;;5.34;91.69
44920;BME280;30655;53.094;6.072;2023-02-16T01:27:15;102319.22;;;5.31;92.25
44920;BME280;30655;53.094;6.072;2023-02-16T01:29:44;102283.84;;;5.14;91.43
44920;BME280;30655;53.094;6.072;2023-02-16T01:32:12;102315.50;;;5.32;92.18
44920;BME280;30655;53.094;6.072;2023-02-16T01:34:39;102314.03;;;5.30;92.51
44920;BME280;30655;53.094;6.072;2023-02-16T01:37:12;102316.28;;;5.26;92.35
44920;BME280;30655;53.094;6.072;2023-02-16T01:39:41;102321.06;;;5.31;91.39
44920;BME280;30655;53.094;6.072;2023-02-16T01:42:26;102304.69;;;5.19;91.82
44920;BME280;30655;53.094;6.072;2023-02-16T01:44:58;102309.69;;;5.29;91.92
44920;BME280;30655;53.094;6.072;2023-02-16T01:47:33;102308.84;;;5.28;92.11
44920;BME280;30655;53.094;6.072;2023-02-16T01:50:14;102312.97;;;5.24;91.89
44920;BME280;30655;53.094;6.072;2023-02-16T01:52:43;102320.00;;;5.25;92.32
44920;BME280;30655;53.094;6.072;2023-02-16T01:55:17;102303.06;;;5.25;91.92
44920;BME280;30655;53.094;6.072;2023-02-16T01:57:48;102290.22;;;5.13;92.82
44920;BME280;30655;53.094;6.072;2023-02-16T02:00:23;102295.63;;;5.20;92.01
44920;BME280;30655;53.094;6.072;2023-02-16T02:02:54;102293.34;;;5.17;92.43
44920;BME280;30655;53.094;6.072;2023-02-16T02:05:24;102205.75;;;4.55;92.46
44920;BME280;30655;53.094;6.072;2023-02-16T02:07:57;102314.16;;;5.15;92.55
44920;BME280;30655;53.094;6.072;2023-02-16T02:10:32;102278.78;;;4.98;92.72
44920;BME280;30655;53.094;6.072;2023-02-16T02:13:06;102279.00;;;5.03;93.10
44920;BME280;30655;53.094;6.072;2023-02-16T02:15:36;102290.66;;;5.17;92.97
44920;BME280;30655;53.094;6.072;2023-02-16T02:18:03;102280.53;;;5.12;92.83
44920;BME280;30655;53.094;6.072;2023-02-16T02:20:45;102269.13;;;5.04;93.20
44920;BME280;30655;53.094;6.072;2023-02-16T02:23:28;102285.69;;;5.14;93.31
44920;BME280;30655;53.094;6.072;2023-02-16T02:29:10;102284.66;;;5.15;93.43
44920;BME280;30655;53.094;6.072;2023-02-16T02:31:52;102286.16;;;5.17;93.48
44920;BME280;30655;53.094;6.072;2023-02-16T02:34:32;102265.28;;;5.13;93.79
44920;BME280;30655;53.094;6.072;2023-02-16T02:37:09;102130.84;;;4.34;92.72
44920;BME280;30655;53.094;6.072;2023-02-16T02:39:45;102263.88;;;5.24;93.96
44920;BME280;30655;53.094;6.072;2023-02-16T02:42:20;102260.59;;;5.28;93.32
44920;BME280;30655;53.094;6.072;2023-02-16T02:44:54;102264.13;;;5.29;93.26
44920;BME280;30655;53.094;6.072;2023-02-16T02:47:22;102262.09;;;5.31;93.34
44920;BME280;30655;53.094;6.072;2023-02-16T02:50:38;102253.22;;;5.30;93.80
44920;BME280;30655;53.094;6.072;2023-02-16T02:53:09;102247.44;;;5.27;94.45
44920;BME280;30655;53.094;6.072;2023-02-16T02:55:41;102244.97;;;5.32;94.36
44920;BME280;30655;53.094;6.072;2023-02-16T02:58:10;102237.53;;;5.27;94.24
44920;BME280;30655;53.094;6.072;2023-02-16T03:00:40;102241.28;;;5.39;94.43
44920;BME280;30655;53.094;6.072;2023-02-16T03:03:12;102241.75;;;5.43;93.93
44920;BME280;30655;53.094;6.072;2023-02-16T03:05:43;102240.69;;;5.44;94.15
44920;BME280;30655;53.094;6.072;2023-02-16T03:08:13;102236.38;;;5.49;93.84
44920;BME280;30655;53.094;6.072;2023-02-16T03:10:44;102230.63;;;5.52;93.74
44920;BME280;30655;53.094;6.072;2023-02-16T03:13:16;102237.44;;;5.55;94.06
44920;BME280;30655;53.094;6.072;2023-02-16T03:15:48;102087.94;;;4.55;93.92
44920;BME280;30655;53.094;6.072;2023-02-16T03:18:16;102219.28;;;5.50;93.86
44920;BME280;30655;53.094;6.072;2023-02-16T03:20:44;102248.44;;;5.67;93.91
44920;BME280;30655;53.094;6.072;2023-02-16T03:23:12;102235.63;;;5.69;94.03
44920;BME280;30655;53.094;6.072;2023-02-16T03:25:40;102232.56;;;5.72;93.68
44920;BME280;30655;53.094;6.072;2023-02-16T03:28:09;102233.16;;;5.74;94.27
44920;BME280;30655;53.094;6.072;2023-02-16T03:30:39;102234.44;;;5.78;94.58
44920;BME280;30655;53.094;6.072;2023-02-16T03:33:10;102229.06;;;5.78;94.53
44920;BME280;30655;53.094;6.072;2023-02-16T03:35:38;102217.09;;;5.80;94.06
44920;BME280;30655;53.094;6.072;2023-02-16T03:38:05;102237.13;;;5.84;94.17
44920;BME280;30655;53.094;6.072;2023-02-16T03:40:33;102235.25;;;5.85;94.71
44920;BME280;30655;53.094;6.072;2023-02-16T03:43:03;102232.84;;;5.90;94.43
44920;BME280;30655;53.094;6.072;2023-02-16T03:45:34;102200.97;;;5.74;94.34
44920;BME280;30655;53.094;6.072;2023-02-16T03:48:02;102224.38;;;5.93;95.19
44920;BME280;30655;53.094;6.072;2023-02-16T03:50:32;102208.44;;;5.85;94.25
44920;BME280;30655;53.094;6.072;2023-02-16T03:52:59;102213.06;;;5.97;94.47
44920;BME280;30655;53.094;6.072;2023-02-16T03:55:26;102192.38;;;5.91;94.01
44920;BME280;30655;53.094;6.072;2023-02-16T03:57:52;102214.09;;;6.10;94.04
44920;BME280;30655;53.094;6.072;2023-02-16T04:00:20;102151.88;;;5.67;94.21
44920;BME280;30655;53.094;6.072;2023-02-16T04:02:46;102189.50;;;5.99;94.52
44920;BME280;30655;53.094;6.072;2023-02-16T04:05:13;102187.22;;;6.03;94.23
44920;BME280;30655;53.094;6.072;2023-02-16T04:07:42;102193.03;;;6.07;93.91
44920;BME280;30655;53.094;6.072;2023-02-16T04:10:09;102216.78;;;6.23;93.89
44920;BME280;30655;53.094;6.072;2023-02-16T04:12:36;102226.72;;;6.22;94.28
44920;BME280;30655;53.094;6.072;2023-02-16T04:15:04;102225.88;;;6.28;93.94
44920;BME280;30655;53.094;6.072;2023-02-16T04:17:32;102218.88;;;6.27;94.41
44920;BME280;30655;53.094;6.072;2023-02-16T04:19:59;102221.97;;;6.31;94.35
44920;BME280;30655;53.094;6.072;2023-02-16T04:22:26;102227.13;;;6.32;94.10
44920;BME280;30655;53.094;6.072;2023-02-16T04:24:57;102202.53;;;6.16;94.88
44920;BME280;30655;53.094;6.072;2023-02-16T04:27:23;102222.16;;;6.36;94.35
44920;BME280;30655;53.094;6.072;2023-02-16T04:29:50;102230.03;;;6.37;94.18
44920;BME280;30655;53.094;6.072;2023-02-16T04:32:17;102226.28;;;6.38;94.86
44920;BME280;30655;53.094;6.072;2023-02-16T04:34:44;102220.53;;;6.41;94.19
44920;BME280;30655;53.094;6.072;2023-02-16T04:37:12;102222.56;;;6.39;94.46
44920;BME280;30655;53.094;6.072;2023-02-16T04:39:41;102216.81;;;6.42;94.47
44920;BME280;30655;53.094;6.072;2023-02-16T04:42:09;102214.72;;;6.44;94.84
44920;BME280;30655;53.094;6.072;2023-02-16T04:44:38;102225.47;;;6.44;94.58
44920;BME280;30655;53.094;6.072;2023-02-16T04:47:08;102228.56;;;6.48;94.33
44920;BME280;30655;53.094;6.072;2023-02-16T04:49:35;102202.75;;;6.34;94.71
44920;BME280;30655;53.094;6.072;2023-02-16T04:52:02;102220.50;;;6.48;94.13
44920;BME280;30655;53.094;6.072;2023-02-16T04:54:29;102210.16;;;6.38;94.39
44920;BME280;30655;53.094;6.072;2023-02-16T04:56:56;102182.31;;;6.26;94.15
44920;BME280;30655;53.094;6.072;2023-02-16T04:59:25;102214.53;;;6.46;94.58
44920;BME280;30655;53.094;6.072;2023-02-16T05:01:52;102210.59;;;6.42;95.07
44920;BME280;30655;53.094;6.072;2023-02-16T05:04:19;102215.13;;;6.48;94.47
44920;BME280;30655;53.094;6.072;2023-02-16T05:06:46;102224.66;;;6.51;94.23
44920;BME280;30655;53.094;6.072;2023-02-16T05:09:13;102223.63;;;6.52;94.71
44920;BME280;30655;53.094;6.072;2023-02-16T05:11:40;102211.00;;;6.45;94.99
44920;BME280;30655;53.094;6.072;2023-02-16T05:14:16;102218.44;;;6.50;95.21
44920;BME280;30655;53.094;6.072;2023-02-16T05:16:45;102216.59;;;6.51;95.17
44920;BME280;30655;53.094;6.072;2023-02-16T05:19:12;102205.63;;;6.45;95.48
44920;BME280;30655;53.094;6.072;2023-02-16T05:21:39;102211.41;;;6.56;95.36
44920;BME280;30655;53.094;6.072;2023-02-16T05:24:07;102215.13;;;6.55;95.20
44920;BME280;30655;53.094;6.072;2023-02-16T05:26:37;102180.63;;;6.45;95.31
44920;BME280;30655;53.094;6.072;2023-02-16T05:29:05;102197.78;;;6.57;94.64
44920;BME280;30655;53.094;6.072;2023-02-16T05:31:32;102205.63;;;6.59;94.73
44920;BME280;30655;53.094;6.072;2023-02-16T05:34:00;102184.97;;;6.53;95.26
44920;BME280;30655;53.094;6.072;2023-02-16T05:36:27;102189.94;;;6.56;94.67
44920;BME280;30655;53.094;6.072;2023-02-16T05:38:55;102188.69;;;6.65;95.12
44920;BME280;30655;53.094;6.072;2023-02-16T05:41:22;102163.09;;;6.42;94.95
44920;BME280;30655;53.094;6.072;2023-02-16T05:43:50;102184.97;;;6.66;95.17
44920;BME280;30655;53.094;6.072;2023-02-16T05:46:17;102200.25;;;6.65;95.24
44920;BME280;30655;53.094;6.072;2023-02-16T05:48:45;102202.31;;;6.70;95.33
44920;BME280;30655;53.094;6.072;2023-02-16T05:51:13;102145.94;;;6.30;95.42
44920;BME280;30655;53.094;6.072;2023-02-16T05:53:41;102208.94;;;6.67;95.35
44920;BME280;30655;53.094;6.072;2023-02-16T05:56:08;102206.66;;;6.71;95.64
44920;BME280;30655;53.094;6.072;2023-02-16T05:58:35;102204.38;;;6.74;95.39
44920;BME280;30655;53.094;6.072;2023-02-16T06:01:02;102075.53;;;5.89;95.51
44920;BME280;30655;53.094;6.072;2023-02-16T06:03:31;102097.84;;;5.96;95.74
44920;BME280;30655;53.094;6.072;2023-02-16T06:06:02;102097.84;;;5.96;95.35
44920;BME280;30655;53.094;6.072;2023-02-16T06:08:34;102179.38;;;6.61;95.77
44920;BME280;30655;53.094;6.072;2023-02-16T06:11:02;102173.19;;;6.54;95.78
44920;BME280;30655;53.094;6.072;2023-02-16T06:13:29;102192.19;;;6.72;95.36
44920;BME280;30655;53.094;6.072;2023-02-16T06:15:56;102090.41;;;6.11;95.89
44920;BME280;30655;53.094;6.072;2023-02-16T06:34:46;102098.66;;;6.16;95.88
44920;BME280;30655;53.094;6.072;2023-02-16T06:37:14;102161.41;;;6.55;95.95
44920;BME280;30655;53.094;6.072;2023-02-16T06:39:42;102203.97;;;6.77;95.99
44920;BME280;30655;53.094;6.072;2023-02-16T06:42:10;102198.59;;;6.77;95.78
44920;BME280;30655;53.094;6.072;2023-02-16T06:44:38;102204.75;;;6.78;95.80
44920;BME280;30655;53.094;6.072;2023-02-16T06:47:06;102181.25;;;6.67;96.23
44920;BME280;30655;53.094;6.072;2023-02-16T06:49:34;102112.28;;;6.21;96.01
44920;BME280;30655;53.094;6.072;2023-02-16T06:52:05;102204.38;;;6.81;95.63
44920;BME280;30655;53.094;6.072;2023-02-16T06:54:33;102191.13;;;6.73;95.66
44920;BME280;30655;53.094;6.072;2023-02-16T06:57:02;102213.66;;;6.85;96.22
44920;BME280;30655;53.094;6.072;2023-02-16T06:59:31;102211.78;;;6.85;95.73
44920;BME280;30655;53.094;6.072;2023-02-16T07:02:02;102213.47;;;6.86;95.75
44920;BME280;30655;53.094;6.072;2023-02-16T07:04:30;102210.53;;;6.88;96.36
44920;BME280;30655;53.094;6.072;2023-02-16T07:07:00;102127.56;;;6.34;95.96
44920;BME280;30655;53.094;6.072;2023-02-16T07:09:30;102199.00;;;6.81;96.51
44920;BME280;30655;53.094;6.072;2023-02-16T07:11:59;102210.97;;;6.85;96.69
44920;BME280;30655;53.094;6.072;2023-02-16T07:14:27;102222.31;;;6.93;96.19
44920;BME280;30655;53.094;6.072;2023-02-16T07:16:55;102222.94;;;6.89;96.24
44920;BME280;30655;53.094;6.072;2023-02-16T07:19:23;102232.44;;;6.98;96.49
44920;BME280;30655;53.094;6.072;2023-02-16T07:21:53;102234.09;;;6.99;96.57
44920;BME280;30655;53.094;6.072;2023-02-16T07:24:21;102193.63;;;6.81;96.12
44920;BME280;30655;53.094;6.072;2023-02-16T07:26:58;102220.88;;;6.91;96.69
44920;BME280;30655;53.094;6.072;2023-02-16T07:29:26;102237.41;;;7.01;96.43
44920;BME280;30655;53.094;6.072;2023-02-16T07:31:54;102243.19;;;7.05;96.29
44920;BME280;30655;53.094;6.072;2023-02-16T07:34:22;102204.97;;;6.83;96.75
44920;BME280;30655;53.094;6.072;2023-02-16T07:36:50;102219.00;;;6.98;97.10
44920;BME280;30655;53.094;6.072;2023-02-16T07:39:20;102220.84;;;6.98;97.29
44920;BME280;30655;53.094;6.072;2023-02-16T07:41:48;102205.97;;;6.95;96.94
44920;BME280;30655;53.094;6.072;2023-02-16T07:44:19;102232.38;;;7.18;97.12
44920;BME280;30655;53.094;6.072;2023-02-16T07:46:48;102197.28;;;6.93;97.39
44920;BME280;30655;53.094;6.072;2023-02-16T07:49:18;102229.50;;;7.19;97.23
44920;BME280;30655;53.094;6.072;2023-02-16T07:51:49;102216.69;;;7.08;97.28
44920;BME280;30655;53.094;6.072;2023-02-16T07:54:16;102242.69;;;7.27;96.85
44920;BME280;30655;53.094;6.072;2023-02-16T07:56:46;102241.47;;;7.30;97.76
44920;BME280;30655;53.094;6.072;2023-02-16T07:59:24;102238.56;;;7.31;97.38
44920;BME280;30655;53.094;6.072;2023-02-16T08:01:52;102230.72;;;7.23;97.30
44920;BME280;30655;53.094;6.072;2023-02-16T08:04:23;102191.91;;;7.06;97.51
44920;BME280;30655;53.094;6.072;2023-02-16T08:06:52;102238.56;;;7.31;97.32
44920;BME280;30655;53.094;6.072;2023-02-16T08:09:21;102231.94;;;7.27;97.57
44920;BME280;30655;53.094;6.072;2023-02-16T08:11:50;102267.91;;;7.46;97.45
44920;BME280;30655;53.094;6.072;2023-02-16T08:14:18;102257.97;;;7.47;97.82
44920;BME280;30655;53.094;6.072;2023-02-16T08:16:50;102244.31;;;7.42;97.76
44920;BME280;30655;53.094;6.072;2023-02-16T08:19:22;102244.31;;;7.42;97.59
44920;BME280;30655;53.094;6.072;2023-02-16T08:21:50;102249.66;;;7.48;97.55
44920;BME280;30655;53.094;6.072;2023-02-16T08:24:19;102234.78;;;7.46;97.45
44920;BME280;30655;53.094;6.072;2023-02-16T08:26:47;102252.13;;;7.56;97.41
44920;BME280;30655;53.094;6.072;2023-02-16T08:29:16;102210.41;;;7.34;97.47
44920;BME280;30655;53.094;6.072;2023-02-16T08:31:44;102236.84;;;7.50;97.75
44920;BME280;30655;53.094;6.072;2023-02-16T08:34:17;102247.78;;;7.62;97.33
44920;BME280;30655;53.094;6.072;2023-02-16T08:36:51;102254.56;;;7.64;97.42
44920;BME280;30655;53.094;6.072;2023-02-16T08:39:21;102255.84;;;7.62;97.36
44920;BME280;30655;53.094;6.072;2023-02-16T08:41:51;102257.25;;;7.64;97.57
44920;BME280;30655;53.094;6.072;2023-02-16T08:44:20;102204.19;;;7.33;97.70
44920;BME280;30655;53.094;6.072;2023-02-16T08:46:50;102244.84;;;7.63;97.58
44920;BME280;30655;53.094;6.072;2023-02-16T08:49:23;102253.72;;;7.70;97.66
44920;BME280;30655;53.094;6.072;2023-02-16T08:51:53;102236.75;;;7.63;97.69
44920;BME280;30655;53.094;6.072;2023-02-16T08:54:23;102240.91;;;7.66;97.69
44920;BME280;30655;53.094;6.072;2023-02-16T08:56:51;102254.28;;;7.79;97.34
44920;BME280;30655;53.094;6.072;2023-02-16T08:59:20;102250.13;;;7.83;98.02
44920;BME280;30655;53.094;6.072;2023-02-16T09:01:51;102237.31;;;7.78;97.94
44920;BME280;30655;53.094;6.072;2023-02-16T09:04:25;102247.03;;;7.86;97.94
44920;BME280;30655;53.094;6.072;2023-02-16T09:06:56;102243.72;;;7.84;97.77
44920;BME280;30655;53.094;6.072;2023-02-16T09:09:26;102247.03;;;7.86;98.00
44920;BME280;30655;53.094;6.072;2023-02-16T09:11:54;102254.84;;;7.94;98.11
44920;BME280;30655;53.094;6.072;2023-02-16T09:14:22;102247.78;;;7.93;98.34
44920;BME280;30655;53.094;6.072;2023-02-16T09:16:50;102264.31;;;8.03;98.43
44920;BME280;30655;53.094;6.072;2023-02-16T09:19:21;102235.78;;;7.96;98.22
44920;BME280;30655;53.094;6.072;2023-02-16T09:21:49;102265.94;;;8.11;98.14
44920;BME280;30655;53.094;6.072;2023-02-16T09:24:18;102270.66;;;8.15;98.65
44920;BME280;30655;53.094;6.072;2023-02-16T09:26:46;102273.75;;;8.19;98.78
44920;BME280;30655;53.094;6.072;2023-02-16T09:29:15;102276.59;;;8.24;98.50
44920;BME280;30655;53.094;6.072;2023-02-16T09:31:44;102270.78;;;8.27;98.30
44920;BME280;30655;53.094;6.072;2023-02-16T09:34:17;102267.50;;;8.32;98.45
44920;BME280;30655;53.094;6.072;2023-02-16T09:36:50;102270.34;;;8.37;98.05
44920;BME280;30655;53.094;6.072;2023-02-16T09:39:18;102265.38;;;8.34;97.87
44920;BME280;30655;53.094;6.072;2023-02-16T09:42:01;102277.53;;;8.43;98.41
44920;BME280;30655;53.094;6.072;2023-02-16T09:44:40;102275.63;;;8.50;98.25
44920;BME280;30655;53.094;6.072;2023-02-16T09:47:17;102249.84;;;8.36;98.32
44920;BME280;30655;53.094;6.072;2023-02-16T09:49:46;102266.94;;;8.48;98.57
44920;BME280;30655;53.094;6.072;2023-02-16T09:52:23;102278.66;;;8.60;98.58
44920;BME280;30655;53.094;6.072;2023-02-16T09:54:53;102260.00;;;8.58;98.36
44920;BME280;30655;53.094;6.072;2023-02-16T09:57:39;102259.97;;;8.65;98.13
44920;BME280;30655;53.094;6.072;2023-02-16T10:00:15;102250.22;;;8.64;98.54
44920;BME280;30655;53.094;6.072;2023-02-16T10:02:51;102259.69;;;8.73;98.24
44920;BME280;30655;53.094;6.072;2023-02-16T10:05:24;102252.22;;;8.75;98.34
44920;BME280;30655;53.094;6.072;2023-02-16T10:08:09;102249.06;;;8.78;98.32
44920;BME280;30655;53.094;6.072;2023-02-16T10:10:42;102259.41;;;8.81;98.35
44920;BME280;30655;53.094;6.072;2023-02-16T10:13:19;102253.34;;;8.86;98.11
44920;BME280;30655;53.094;6.072;2023-02-16T10:15:48;102207.56;;;8.61;98.39
44920;BME280;30655;53.094;6.072;2023-02-16T10:18:24;102245.31;;;8.79;98.16
44920;BME280;30655;53.094;6.072;2023-02-16T10:20:54;102260.81;;;8.84;98.41
44920;BME280;30655;53.094;6.072;2023-02-16T10:23:36;102246.81;;;8.75;98.39
44920;BME280;30655;53.094;6.072;2023-02-16T10:26:09;102278.13;;;8.76;98.62
44920;BME280;30655;53.094;6.072;2023-02-16T10:28:45;102278.88;;;8.83;98.31
44920;BME280;30655;53.094;6.072;2023-02-16T10:31:19;102273.31;;;8.78;98.95
44920;BME280;30655;53.094;6.072;2023-02-16T10:33:59;102290.28;;;8.85;98.74
44920;BME280;30655;53.094;6.072;2023-02-16T10:36:38;102282.78;;;8.87;98.79
44920;BME280;30655;53.094;6.072;2023-02-16T10:39:15;102268.53;;;8.80;99.16
44920;BME280;30655;53.094;6.072;2023-02-16T10:41:49;102282.34;;;8.90;99.43
44920;BME280;30655;53.094;6.072;2023-02-16T10:44:21;102287.22;;;9.00;99.26
44920;BME280;30655;53.094;6.072;2023-02-16T10:46:54;102267.38;;;8.94;99.46
44920;BME280;30655;53.094;6.072;2023-02-16T10:49:23;102287.59;;;9.03;100.00
44920;BME280;30655;53.094;6.072;2023-02-16T10:51:52;102264.97;;;8.86;100.00
44920;BME280;30655;53.094;6.072;2023-02-16T10:54:26;102293.81;;;9.04;100.00
44920;BME280;30655;53.094;6.072;2023-02-16T10:56:54;102283.56;;;8.94;100.00
44920;BME280;30655;53.094;6.072;2023-02-16T10:59:24;102254.91;;;8.75;100.00
44920;BME280;30655;53.094;6.072;2023-02-16T11:01:52;102301.72;;;9.05;100.00
44920;BME280;30655;53.094;6.072;2023-02-16T11:04:30;102297.13;;;9.06;100.00
44920;BME280;30655;53.094;6.072;2023-02-16T11:07:00;102307.41;;;9.16;100.00
44920;BME280;30655;53.094;6.072;2023-02-16T11:09:29;102289.56;;;9.15;100.00
44920;BME280;30655;53.094;6.072;2023-02-16T11:11:57;102227.28;;;8.80;100.00
44920;BME280;30655;53.094;6.072;2023-02-16T11:14:26;102282.38;;;9.27;100.00
44920;BME280;30655;53.094;6.072;2023-02-16T11:17:03;102277.75;;;9.34;100.00
44920;BME280;30655;53.094;6.072;2023-02-16T11:19:30;102289.00;;;9.31;100.00
44920;BME280;30655;53.094;6.072;2023-02-16T11:21:58;102305.94;;;9.38;100.00
44920;BME280;30655;53.094;6.072;2023-02-16T11:24:27;102308.88;;;9.36;100.00
44920;BME280;30655;53.094;6.072;2023-02-16T11:27:02;102291.59;;;9.37;100.00
44920;BME280;30655;53.094;6.072;2023-02-16T11:29:31;102286.06;;;9.32;100.00
44920;BME280;30655;53.094;6.072;2023-02-16T11:32:04;102291.09;;;9.29;100.00
44920;BME280;30655;53.094;6.072;2023-02-16T11:34:32;102274.06;;;9.28;100.00
44920;BME280;30655;53.094;6.072;2023-02-16T11:37:03;102282.69;;;9.37;100.00
44920;BME280;30655;53.094;6.072;2023-02-16T11:39:36;102259.16;;;9.26;100.00
44920;BME280;30655;53.094;6.072;2023-02-16T11:42:06;102272.72;;;9.37;100.00
44920;BME280;30655;53.094;6.072;2023-02-16T11:44:37;102253.00;;;9.37;100.00
44920;BME280;30655;53.094;6.072;2023-02-16T11:47:06;102232.34;;;9.31;100.00
44920;BME280;30655;53.094;6.072;2023-02-16T11:49:37;102257.22;;;9.51;100.00
44920;BME280;30655;53.094;6.072;2023-02-16T11:52:23;102231.50;;;9.48;100.00
44920;BME280;30655;53.094;6.072;2023-02-16T11:54:53;102246.03;;;9.66;100.00
44920;BME280;30655;53.094;6.072;2023-02-16T11:57:26;102244.56;;;9.81;100.00
44920;BME280;30655;53.094;6.072;2023-02-16T11:59:55;102198.06;;;9.79;100.00
44920;BME280;30655;53.094;6.072;2023-02-16T12:02:37;102202.34;;;9.99;100.00
44920;BME280;30655;53.094;6.072;2023-02-16T12:05:22;102220.78;;;10.31;100.00
44920;BME280;30655;53.094;6.072;2023-02-16T12:08:03;102215.53;;;10.48;100.00
44920;BME280;30655;53.094;6.072;2023-02-16T12:10:41;102206.72;;;10.64;100.00
44920;BME280;30655;53.094;6.072;2023-02-16T12:13:17;102197.78;;;10.75;99.77
44920;BME280;30655;53.094;6.072;2023-02-16T12:15:53;102197.53;;;10.77;98.69
44920;BME280;30655;53.094;6.072;2023-02-16T12:18:27;102182.13;;;10.89;99.39
44920;BME280;30655;53.094;6.072;2023-02-16T12:20:59;102178.56;;;11.12;99.14
44920;BME280;30655;53.094;6.072;2023-02-16T12:23:36;102171.16;;;11.19;97.54
44920;BME280;30655;53.094;6.072;2023-02-16T12:29:05;102137.81;;;11.30;96.06
44920;BME280;30655;53.094;6.072;2023-02-16T12:31:49;102152.91;;;11.54;94.92
44920;BME280;30655;53.094;6.072;2023-02-16T12:34:26;102073.13;;;11.17;95.39
44920;BME280;30655;53.094;6.072;2023-02-16T12:37:01;102154.72;;;11.94;94.52
44920;BME280;30655;53.094;6.072;2023-02-16T12:39:36;102150.56;;;12.20;93.97
44920;BME280;30655;53.094;6.072;2023-02-16T12:42:22;102150.13;;;12.44;91.71
44920;BME280;30655;53.094;6.072;2023-02-16T12:44:58;102149.47;;;12.54;90.10
44920;BME280;30655;53.094;6.072;2023-02-16T12:47:30;102143.34;;;12.64;90.59
44920;BME280;30655;53.094;6.072;2023-02-16T12:50:00;102137.63;;;12.60;89.80
44920;BME280;30655;53.094;6.072;2023-02-16T12:52:35;102143.28;;;12.59;90.03
44920;BME280;30655;53.094;6.072;2023-02-16T12:55:17;102143.53;;;12.40;88.97
44920;BME280;30655;53.094;6.072;2023-02-16T12:57:51;102136.56;;;12.28;89.34
44920;BME280;30655;53.094;6.072;2023-02-16T13:00:25;102147.56;;;12.21;89.06
44920;BME280;30655;53.094;6.072;2023-02-16T13:03:03;102134.94;;;12.10;89.50
44920;BME280;30655;53.094;6.072;2023-02-16T13:05:36;102133.31;;;12.09;89.38
44920;BME280;30655;53.094;6.072;2023-02-16T13:08:07;102115.66;;;11.90;89.28
44920;BME280;30655;53.094;6.072;2023-02-16T13:10:53;102152.59;;;12.13;89.52
44920;BME280;30655;53.094;6.072;2023-02-16T13:13:25;102131.06;;;12.06;89.90
44920;BME280;30655;53.094;6.072;2023-02-16T13:16:00;102132.56;;;12.14;89.74
44920;BME280;30655;53.094;6.072;2023-02-16T13:18:48;102126.16;;;12.03;89.78
44920;BME280;30655;53.094;6.072;2023-02-16T13:21:32;102132.88;;;11.84;89.29
44920;BME280;30655;53.094;6.072;2023-02-16T13:24:24;102131.38;;;11.76;89.34
44920;BME280;30655;53.094;6.072;2023-02-16T13:27:06;102123.63;;;11.68;89.03
44920;BME280;30655;53.094;6.072;2023-02-16T13:29:57;102109.75;;;11.64;89.86
44920;BME280;30655;53.094;6.072;2023-02-16T13:33:05;102115.41;;;11.63;89.84
44920;BME280;30655;53.094;6.072;2023-02-16T13:35:49;102108.00;;;11.58;89.71
44920;BME280;30655;53.094;6.072;2023-02-16T13:38:31;102092.75;;;11.52;90.10
44920;BME280;30655;53.094;6.072;2023-02-16T13:41:31;102088.66;;;11.50;89.97
44920;BME280;30655;53.094;6.072;2023-02-16T13:44:03;102088.56;;;11.45;90.34